KMHT/MHT METAR and TAF weather

Enter ICAO airport designator
Station Type Date Time Source
KMHT METAR 2022/06/28 23:53 UTC NOAA

KMHT 282353Z 35007KT 10SM FEW060 26/10 A3012 RMK AO2 SLP207 T02560100 10278 20256 53008


Station Type Date Time Source
KMHT Decoded METAR 2022/06/28 23:53 UTC NOAA

MANCHESTER AIRPORT, NH, United States (KMHT) 42-56N 071-26W 81M
Jun 28, 2022 - 07:53 PM EDT / 2022.06.28 2353 UTC
Wind: from the N (350 degrees) at 8 MPH (7 KT):0
Visibility: 10 mile(s):0
Sky conditions: mostly clear
Temperature: 78.1 F (25.6 C)
Dew Point: 50.0 F (10.0 C)
Relative Humidity: 37%
Pressure (altimeter): 30.12 in. Hg (1019 hPa)
Pressure tendency: 0.02 inches (0.8 hPa) higher than three hours ago
ob: KMHT 282353Z 35007KT 10SM FEW060 26/10 A3012 RMK AO2 SLP207 T02560100 10278 20256 53008
cycle: 0

Station Type Date Time Source
KMHT TAF 2022/06/28 18:33 UTC NOAA

TAF KMHT 281730Z 2818/2918 32008KT P6SM SCT050
FM290000 00000KT P6SM FEW250
FM291500 23003KT P6SM FEW250

Example: see airport list